sensor_id;sensor_type;location;lat;lon;timestamp;pressure;altitude;pressure_sealevel;temperature;humidity
74960;BME280;63518;49.572;1.106;2023-05-10T00:00:20;99228.22;;;10.17;89.18
74960;BME280;63518;49.572;1.106;2023-05-10T00:02:49;99231.03;;;9.88;88.88
74960;BME280;63518;49.572;1.106;2023-05-10T00:05:15;99229.59;;;10.20;87.81
74960;BME280;63518;49.572;1.106;2023-05-10T00:07:42;99208.22;;;9.83;88.24
74960;BME280;63518;49.572;1.106;2023-05-10T00:10:11;99228.28;;;9.88;87.40
74960;BME280;63518;49.572;1.106;2023-05-10T00:12:38;99214.06;;;9.76;88.95
74960;BME280;63518;49.572;1.106;2023-05-10T00:15:06;99221.34;;;9.91;88.63
74960;BME280;63518;49.572;1.106;2023-05-10T00:17:33;99224.81;;;10.25;88.95
74960;BME280;63518;49.572;1.106;2023-05-10T00:19:59;99227.31;;;9.74;88.34
74960;BME280;63518;49.572;1.106;2023-05-10T00:22:27;99223.25;;;9.95;88.58
74960;BME280;63518;49.572;1.106;2023-05-10T00:24:53;99223.25;;;10.19;87.51
74960;BME280;63518;49.572;1.106;2023-05-10T00:27:20;99215.41;;;9.79;87.88
74960;BME280;63518;49.572;1.106;2023-05-10T00:29:47;99226.44;;;10.27;88.04
74960;BME280;63518;49.572;1.106;2023-05-10T00:32:14;99208.34;;;9.38;88.72
74960;BME280;63518;49.572;1.106;2023-05-10T00:34:41;99225.22;;;9.90;88.34
74960;BME280;63518;49.572;1.106;2023-05-10T00:37:07;99223.69;;;10.03;88.49
74960;BME280;63518;49.572;1.106;2023-05-10T00:39:34;99223.25;;;9.95;88.74
74960;BME280;63518;49.572;1.106;2023-05-10T00:42:01;99216.78;;;9.81;87.76
74960;BME280;63518;49.572;1.106;2023-05-10T00:44:28;99235.16;;;9.86;87.83
74960;BME280;63518;49.572;1.106;2023-05-10T00:46:55;99226.00;;;9.95;88.61
74960;BME280;63518;49.572;1.106;2023-05-10T00:49:21;99218.66;;;10.10;88.54
74960;BME280;63518;49.572;1.106;2023-05-10T00:51:49;99233.53;;;9.85;88.07
74960;BME280;63518;49.572;1.106;2023-05-10T00:54:16;99211.16;;;9.62;88.83
74960;BME280;63518;49.572;1.106;2023-05-10T00:56:43;99229.47;;;9.77;88.44
74960;BME280;63518;49.572;1.106;2023-05-10T00:59:16;99238.38;;;9.93;89.47
74960;BME280;63518;49.572;1.106;2023-05-10T01:01:44;99240.03;;;9.94;89.30
74960;BME280;63518;49.572;1.106;2023-05-10T01:04:12;99229.56;;;9.96;88.85
74960;BME280;63518;49.572;1.106;2023-05-10T01:06:40;99226.53;;;9.98;90.65
74960;BME280;63518;49.572;1.106;2023-05-10T01:09:07;99231.78;;;9.94;89.72
74960;BME280;63518;49.572;1.106;2023-05-10T01:11:35;99219.22;;;9.83;89.43
74960;BME280;63518;49.572;1.106;2023-05-10T01:14:03;99211.13;;;9.96;88.96
74960;BME280;63518;49.572;1.106;2023-05-10T01:16:34;99215.50;;;9.98;88.84
74960;BME280;63518;49.572;1.106;2023-05-10T01:19:05;99214.78;;;9.87;89.98
74960;BME280;63518;49.572;1.106;2023-05-10T01:21:42;99220.94;;;10.03;89.84
74960;BME280;63518;49.572;1.106;2023-05-10T01:27:17;99224.25;;;10.05;90.10
74960;BME280;63518;49.572;1.106;2023-05-10T01:46:37;99223.31;;;9.85;91.76
74960;BME280;63518;49.572;1.106;2023-05-10T01:49:10;99220.91;;;9.79;91.74
74960;BME280;63518;49.572;1.106;2023-05-10T01:51:51;99209.19;;;9.97;90.35
74960;BME280;63518;49.572;1.106;2023-05-10T01:54:22;99226.25;;;9.94;90.46
74960;BME280;63518;49.572;1.106;2023-05-10T01:56:55;99207.25;;;9.68;91.52
74960;BME280;63518;49.572;1.106;2023-05-10T01:59:30;99222.00;;;9.83;92.33
74960;BME280;63518;49.572;1.106;2023-05-10T02:02:04;99212.38;;;9.80;92.34
74960;BME280;63518;49.572;1.106;2023-05-10T02:04:34;99210.09;;;9.87;92.47
74960;BME280;63518;49.572;1.106;2023-05-10T02:07:01;99217.13;;;9.75;91.91
74960;BME280;63518;49.572;1.106;2023-05-10T02:09:30;99209.22;;;9.92;92.46
74960;BME280;63518;49.572;1.106;2023-05-10T02:11:59;99184.38;;;9.73;92.27
74960;BME280;63518;49.572;1.106;2023-05-10T02:14:30;99208.84;;;9.75;93.06
74960;BME280;63518;49.572;1.106;2023-05-10T02:16:59;99218.47;;;9.77;92.35
74960;BME280;63518;49.572;1.106;2023-05-10T02:19:27;99211.59;;;9.75;92.06
74960;BME280;63518;49.572;1.106;2023-05-10T02:21:56;99215.13;;;9.80;92.03
74960;BME280;63518;49.572;1.106;2023-05-10T02:24:24;99215.13;;;9.80;92.44
74960;BME280;63518;49.572;1.106;2023-05-10T02:26:53;99220.69;;;9.75;92.61
74960;BME280;63518;49.572;1.106;2023-05-10T02:29:22;99210.19;;;10.06;92.18
74960;BME280;63518;49.572;1.106;2023-05-10T02:31:54;99213.09;;;10.15;90.88
74960;BME280;63518;49.572;1.106;2023-05-10T02:34:23;99213.44;;;9.84;90.97
74960;BME280;63518;49.572;1.106;2023-05-10T02:36:53;99199.94;;;9.88;92.66
74960;BME280;63518;49.572;1.106;2023-05-10T02:39:21;99205.00;;;9.76;90.37
74960;BME280;63518;49.572;1.106;2023-05-10T02:41:49;99208.09;;;9.93;90.14
74960;BME280;63518;49.572;1.106;2023-05-10T02:44:28;99200.81;;;9.78;91.85
74960;BME280;63518;49.572;1.106;2023-05-10T02:47:03;99226.66;;;9.82;90.74
74960;BME280;63518;49.572;1.106;2023-05-10T02:49:30;99203.31;;;9.80;90.54
74960;BME280;63518;49.572;1.106;2023-05-10T02:52:01;99229.56;;;9.96;90.13
74960;BME280;63518;49.572;1.106;2023-05-10T02:54:33;99218.09;;;10.13;91.60
74960;BME280;63518;49.572;1.106;2023-05-10T02:57:03;99210.13;;;10.11;90.01
74960;BME280;63518;49.572;1.106;2023-05-10T02:59:32;99226.19;;;10.04;90.80
74960;BME280;63518;49.572;1.106;2023-05-10T03:02:00;99214.91;;;10.01;90.92
74960;BME280;63518;49.572;1.106;2023-05-10T03:04:39;99219.22;;;10.12;91.20
74960;BME280;63518;49.572;1.106;2023-05-10T03:07:07;99219.94;;;10.17;91.34
74960;BME280;63518;49.572;1.106;2023-05-10T03:09:35;99229.16;;;10.08;90.50
74960;BME280;63518;49.572;1.106;2023-05-10T03:17:10;99213.78;;;10.02;91.54
74960;BME280;63518;49.572;1.106;2023-05-10T03:25:08;99224.34;;;10.18;91.27
74960;BME280;63518;49.572;1.106;2023-05-10T03:27:41;99217.25;;;9.88;92.51
74960;BME280;63518;49.572;1.106;2023-05-10T03:30:13;99224.72;;;10.12;91.74
74960;BME280;63518;49.572;1.106;2023-05-10T03:32:40;99224.22;;;9.81;92.41
74960;BME280;63518;49.572;1.106;2023-05-10T03:35:11;99224.81;;;10.25;91.48
74960;BME280;63518;49.572;1.106;2023-05-10T03:37:39;99231.78;;;9.94;92.69
74960;BME280;63518;49.572;1.106;2023-05-10T03:40:06;99229.84;;;9.94;93.27
74960;BME280;63518;49.572;1.106;2023-05-10T03:42:33;99231.84;;;9.89;93.65
74960;BME280;63518;49.572;1.106;2023-05-10T03:45:00;99238.56;;;10.02;93.59
74960;BME280;63518;49.572;1.106;2023-05-10T03:47:27;99230.25;;;9.83;94.80
74960;BME280;63518;49.572;1.106;2023-05-10T03:49:53;99228.91;;;9.80;95.85
74960;BME280;63518;49.572;1.106;2023-05-10T03:52:20;99221.38;;;10.15;95.10
74960;BME280;63518;49.572;1.106;2023-05-10T03:54:47;99229.94;;;9.84;94.62
74960;BME280;63518;49.572;1.106;2023-05-10T03:57:14;99230.56;;;10.05;94.82
74960;BME280;63518;49.572;1.106;2023-05-10T03:59:41;99232.69;;;10.13;94.44
74960;BME280;63518;49.572;1.106;2023-05-10T04:02:08;99240.16;;;10.08;95.14
74960;BME280;63518;49.572;1.106;2023-05-10T04:04:34;99235.22;;;9.81;95.74
74960;BME280;63518;49.572;1.106;2023-05-10T04:07:01;99229.28;;;9.68;95.02
74960;BME280;63518;49.572;1.106;2023-05-10T04:09:28;99239.00;;;9.56;97.54
74960;BME280;63518;49.572;1.106;2023-05-10T04:11:54;99237.91;;;9.57;97.04
74960;BME280;63518;49.572;1.106;2023-05-10T04:14:21;99237.63;;;9.58;98.03
74960;BME280;63518;49.572;1.106;2023-05-10T04:16:48;99233.47;;;9.61;97.07
74960;BME280;63518;49.572;1.106;2023-05-10T04:19:14;99241.97;;;9.64;98.04
74960;BME280;63518;49.572;1.106;2023-05-10T04:21:41;99241.81;;;9.51;99.16
74960;BME280;63518;49.572;1.106;2023-05-10T04:24:08;99236.88;;;9.48;99.63
74960;BME280;63518;49.572;1.106;2023-05-10T04:26:35;99240.31;;;9.63;99.76
74960;BME280;63518;49.572;1.106;2023-05-10T04:29:10;99249.66;;;9.67;98.23
74960;BME280;63518;49.572;1.106;2023-05-10T04:31:37;99241.97;;;9.93;97.23
74960;BME280;63518;49.572;1.106;2023-05-10T04:34:04;99246.59;;;9.98;98.37
74960;BME280;63518;49.572;1.106;2023-05-10T04:36:31;99241.28;;;10.07;96.88
74960;BME280;63518;49.572;1.106;2023-05-10T04:39:04;99245.81;;;9.63;98.28
74960;BME280;63518;49.572;1.106;2023-05-10T04:41:31;99245.47;;;9.41;98.12
74960;BME280;63518;49.572;1.106;2023-05-10T04:43:58;99268.47;;;9.84;96.93
74960;BME280;63518;49.572;1.106;2023-05-10T04:46:25;99246.22;;;9.81;98.08
74960;BME280;63518;49.572;1.106;2023-05-10T04:48:52;99248.16;;;9.80;98.00
74960;BME280;63518;49.572;1.106;2023-05-10T04:51:18;99258.94;;;9.72;98.83
74960;BME280;63518;49.572;1.106;2023-05-10T04:53:45;99252.84;;;9.46;98.94
74960;BME280;63518;49.572;1.106;2023-05-10T04:56:30;99264.72;;;9.75;98.90
74960;BME280;63518;49.572;1.106;2023-05-10T04:58:57;99257.09;;;9.96;97.30
74960;BME280;63518;49.572;1.106;2023-05-10T05:01:24;99264.06;;;9.88;98.03
74960;BME280;63518;49.572;1.106;2023-05-10T05:03:50;99262.81;;;9.71;97.78
74960;BME280;63518;49.572;1.106;2023-05-10T05:06:19;99271.28;;;10.08;97.83
74960;BME280;63518;49.572;1.106;2023-05-10T05:08:47;99267.19;;;9.77;98.05
74960;BME280;63518;49.572;1.106;2023-05-10T05:11:17;99264.09;;;9.83;97.19
74960;BME280;63518;49.572;1.106;2023-05-10T05:13:44;99279.41;;;9.65;96.79
74960;BME280;63518;49.572;1.106;2023-05-10T05:16:11;99279.13;;;9.96;97.38
74960;BME280;63518;49.572;1.106;2023-05-10T05:18:38;99287.72;;;9.89;97.91
74960;BME280;63518;49.572;1.106;2023-05-10T05:21:17;99288.25;;;9.57;97.95
74960;BME280;63518;49.572;1.106;2023-05-10T05:23:45;99291.00;;;9.57;97.50
74960;BME280;63518;49.572;1.106;2023-05-10T05:26:11;99293.09;;;9.71;98.01
74960;BME280;63518;49.572;1.106;2023-05-10T05:28:38;99297.47;;;9.72;98.54
74960;BME280;63518;49.572;1.106;2023-05-10T05:31:06;99295.69;;;9.91;97.44
74960;BME280;63518;49.572;1.106;2023-05-10T05:33:34;99289.44;;;9.80;97.06
74960;BME280;63518;49.572;1.106;2023-05-10T05:36:02;99303.56;;;9.68;97.36
74960;BME280;63518;49.572;1.106;2023-05-10T05:38:29;99305.91;;;9.85;97.09
74960;BME280;63518;49.572;1.106;2023-05-10T05:40:56;99319.16;;;9.78;97.06
74960;BME280;63518;49.572;1.106;2023-05-10T05:43:23;99321.19;;;9.67;98.46
74960;BME280;63518;49.572;1.106;2023-05-10T05:45:49;99320.72;;;9.55;98.83
74960;BME280;63518;49.572;1.106;2023-05-10T05:48:18;99330.97;;;9.50;97.58
74960;BME280;63518;49.572;1.106;2023-05-10T05:50:45;99333.53;;;9.31;97.51
74960;BME280;63518;49.572;1.106;2023-05-10T05:53:12;99329.34;;;9.78;97.69
74960;BME280;63518;49.572;1.106;2023-05-10T05:55:39;99316.63;;;9.87;97.72
74960;BME280;63518;49.572;1.106;2023-05-10T05:58:05;99336.25;;;9.80;97.06
74960;BME280;63518;49.572;1.106;2023-05-10T06:00:32;99343.69;;;9.40;96.45
74960;BME280;63518;49.572;1.106;2023-05-10T06:02:59;99347.47;;;9.84;97.24
74960;BME280;63518;49.572;1.106;2023-05-10T06:05:26;99347.06;;;9.66;98.07
74960;BME280;63518;49.572;1.106;2023-05-10T06:07:53;99337.50;;;9.59;97.18
74960;BME280;63518;49.572;1.106;2023-05-10T06:10:19;99335.53;;;9.64;97.32
74960;BME280;63518;49.572;1.106;2023-05-10T06:12:46;99348.00;;;9.86;96.80
74960;BME280;63518;49.572;1.106;2023-05-10T06:15:13;99336.00;;;9.72;96.49
74960;BME280;63518;49.572;1.106;2023-05-10T06:17:40;99354.22;;;10.02;96.07
74960;BME280;63518;49.572;1.106;2023-05-10T06:20:08;99357.69;;;9.78;94.82
74960;BME280;63518;49.572;1.106;2023-05-10T06:22:35;99350.94;;;9.65;94.85
74960;BME280;63518;49.572;1.106;2023-05-10T06:25:01;99336.19;;;9.85;96.16
74960;BME280;63518;49.572;1.106;2023-05-10T06:27:29;99365.13;;;9.78;97.14
74960;BME280;63518;49.572;1.106;2023-05-10T06:29:55;99370.72;;;9.67;96.68
74960;BME280;63518;49.572;1.106;2023-05-10T06:32:38;99374.66;;;9.95;97.24
74960;BME280;63518;49.572;1.106;2023-05-10T06:35:05;99378.22;;;9.96;95.69
74960;BME280;63518;49.572;1.106;2023-05-10T06:37:32;99367.84;;;9.88;96.16
74960;BME280;63518;49.572;1.106;2023-05-10T06:39:58;99384.47;;;10.07;95.31
74960;BME280;63518;49.572;1.106;2023-05-10T06:42:25;99362.03;;;9.89;96.60
74960;BME280;63518;49.572;1.106;2023-05-10T06:44:53;99363.69;;;9.90;95.06
74960;BME280;63518;49.572;1.106;2023-05-10T06:47:20;99366.94;;;9.98;95.04
74960;BME280;63518;49.572;1.106;2023-05-10T06:49:46;99388.75;;;10.18;95.69
74960;BME280;63518;49.572;1.106;2023-05-10T06:52:13;99381.00;;;10.25;95.44
74960;BME280;63518;49.572;1.106;2023-05-10T06:54:40;99394.25;;;9.89;95.24
74960;BME280;63518;49.572;1.106;2023-05-10T06:57:07;99381.50;;;9.98;95.83
74960;BME280;63518;49.572;1.106;2023-05-10T06:59:45;99389.16;;;10.06;95.41
74960;BME280;63518;49.572;1.106;2023-05-10T07:02:11;99391.72;;;10.32;94.81
74960;BME280;63518;49.572;1.106;2023-05-10T07:04:39;99385.66;;;10.30;95.23
74960;BME280;63518;49.572;1.106;2023-05-10T07:07:06;99394.09;;;10.43;94.86
74960;BME280;63518;49.572;1.106;2023-05-10T07:09:32;99385.13;;;10.28;94.31
74960;BME280;63518;49.572;1.106;2023-05-10T07:11:59;99395.91;;;10.53;94.49
74960;BME280;63518;49.572;1.106;2023-05-10T07:14:28;99394.72;;;10.35;94.71
74960;BME280;63518;49.572;1.106;2023-05-10T07:16:54;99390.75;;;10.46;94.33
74960;BME280;63518;49.572;1.106;2023-05-10T07:19:21;99399.66;;;10.38;93.97
74960;BME280;63518;49.572;1.106;2023-05-10T07:21:48;99403.22;;;10.39;94.69
74960;BME280;63518;49.572;1.106;2023-05-10T07:24:15;99404.78;;;10.11;93.91
74960;BME280;63518;49.572;1.106;2023-05-10T07:26:42;99402.47;;;10.28;93.46
74960;BME280;63518;49.572;1.106;2023-05-10T07:29:09;99417.78;;;10.44;93.22
74960;BME280;63518;49.572;1.106;2023-05-10T07:31:36;99419.22;;;10.37;93.40
74960;BME280;63518;49.572;1.106;2023-05-10T07:34:03;99407.66;;;10.64;93.21
74960;BME280;63518;49.572;1.106;2023-05-10T07:36:29;99408.00;;;10.57;92.90
74960;BME280;63518;49.572;1.106;2023-05-10T07:38:57;99425.78;;;10.41;92.49
74960;BME280;63518;49.572;1.106;2023-05-10T07:41:24;99423.69;;;10.28;92.96
74960;BME280;63518;49.572;1.106;2023-05-10T07:43:50;99420.69;;;10.19;92.88
74960;BME280;63518;49.572;1.106;2023-05-10T07:46:17;99428.63;;;10.31;93.78
74960;BME280;63518;49.572;1.106;2023-05-10T07:48:46;99426.66;;;10.36;94.19
74960;BME280;63518;49.572;1.106;2023-05-10T07:51:12;99437.06;;;10.44;93.44
74960;BME280;63518;49.572;1.106;2023-05-10T07:53:40;99434.16;;;10.60;92.56
74960;BME280;63518;49.572;1.106;2023-05-10T07:58:47;99434.88;;;10.02;92.66
74960;BME280;63518;49.572;1.106;2023-05-10T08:01:14;99440.66;;;10.40;93.55
74960;BME280;63518;49.572;1.106;2023-05-10T08:03:41;99433.22;;;10.06;93.63
74960;BME280;63518;49.572;1.106;2023-05-10T08:06:07;99436.97;;;10.55;92.87
74960;BME280;63518;49.572;1.106;2023-05-10T08:08:34;99441.50;;;10.69;92.95
74960;BME280;63518;49.572;1.106;2023-05-10T08:11:01;99435.41;;;10.72;91.28
74960;BME280;63518;49.572;1.106;2023-05-10T08:13:28;99443.00;;;11.10;91.47
74960;BME280;63518;49.572;1.106;2023-05-10T08:15:55;99449.97;;;11.02;90.96
74960;BME280;63518;49.572;1.106;2023-05-10T08:18:22;99438.41;;;10.76;90.04
74960;BME280;63518;49.572;1.106;2023-05-10T08:20:49;99435.88;;;10.79;90.72
74960;BME280;63518;49.572;1.106;2023-05-10T08:23:16;99456.44;;;10.63;89.86
74960;BME280;63518;49.572;1.106;2023-05-10T08:25:42;99453.78;;;10.53;91.16
74960;BME280;63518;49.572;1.106;2023-05-10T08:28:09;99457.34;;;10.59;91.11
74960;BME280;63518;49.572;1.106;2023-05-10T08:30:37;99444.94;;;10.85;90.13
74960;BME280;63518;49.572;1.106;2023-05-10T08:33:04;99466.09;;;10.90;89.67
74960;BME280;63518;49.572;1.106;2023-05-10T08:35:31;99464.78;;;10.82;89.31
74960;BME280;63518;49.572;1.106;2023-05-10T08:37:58;99469.75;;;10.85;88.56
74960;BME280;63518;49.572;1.106;2023-05-10T08:40:26;99472.09;;;10.97;89.55
74960;BME280;63518;49.572;1.106;2023-05-10T08:43:05;99473.44;;;10.75;89.20
74960;BME280;63518;49.572;1.106;2023-05-10T08:45:37;99481.91;;;11.32;89.14
74960;BME280;63518;49.572;1.106;2023-05-10T08:48:05;99477.28;;;11.27;88.91
74960;BME280;63518;49.572;1.106;2023-05-10T08:50:35;99478.78;;;10.91;89.30
74960;BME280;63518;49.572;1.106;2023-05-10T08:53:10;99474.25;;;10.76;90.15
74960;BME280;63518;49.572;1.106;2023-05-10T08:55:38;99476.78;;;10.38;89.99
74960;BME280;63518;49.572;1.106;2023-05-10T08:58:06;99478.06;;;10.51;90.42
74960;BME280;63518;49.572;1.106;2023-05-10T09:00:33;99496.44;;;10.90;89.38
74960;BME280;63518;49.572;1.106;2023-05-10T09:03:02;99485.09;;;10.67;88.07
74960;BME280;63518;49.572;1.106;2023-05-10T09:05:29;99485.66;;;10.93;87.35
74960;BME280;63518;49.572;1.106;2023-05-10T09:07:56;99489.78;;;11.20;87.59
74960;BME280;63518;49.572;1.106;2023-05-10T09:10:25;99488.09;;;10.66;85.33
74960;BME280;63518;49.572;1.106;2023-05-10T09:12:53;99503.88;;;11.18;85.75
74960;BME280;63518;49.572;1.106;2023-05-10T09:15:24;99488.56;;;11.07;85.14
74960;BME280;63518;49.572;1.106;2023-05-10T09:17:51;99499.16;;;11.19;85.98
74960;BME280;63518;49.572;1.106;2023-05-10T09:20:18;99504.50;;;11.10;85.97
74960;BME280;63518;49.572;1.106;2023-05-10T09:22:45;99513.53;;;12.06;83.80
74960;BME280;63518;49.572;1.106;2023-05-10T09:25:14;99488.91;;;11.24;84.05
74960;BME280;63518;49.572;1.106;2023-05-10T09:27:46;99502.34;;;11.31;84.97
74960;BME280;63518;49.572;1.106;2023-05-10T09:30:23;99513.22;;;11.70;83.90
74960;BME280;63518;49.572;1.106;2023-05-10T09:32:50;99514.16;;;12.03;84.37
74960;BME280;63518;49.572;1.106;2023-05-10T09:35:21;99527.59;;;11.43;84.39
74960;BME280;63518;49.572;1.106;2023-05-10T09:37:50;99513.44;;;11.74;85.45
74960;BME280;63518;49.572;1.106;2023-05-10T09:40:17;99518.09;;;11.30;84.94
74960;BME280;63518;49.572;1.106;2023-05-10T09:42:59;99508.19;;;11.00;84.12
74960;BME280;63518;49.572;1.106;2023-05-10T09:45:28;99522.59;;;12.12;82.55
74960;BME280;63518;49.572;1.106;2023-05-10T09:47:58;99517.59;;;11.23;84.06
74960;BME280;63518;49.572;1.106;2023-05-10T09:50:26;99532.44;;;12.37;82.95
74960;BME280;63518;49.572;1.106;2023-05-10T09:53:01;99528.13;;;12.12;81.17
74960;BME280;63518;49.572;1.106;2023-05-10T09:58:05;99524.44;;;11.98;81.88
74960;BME280;63518;49.572;1.106;2023-05-10T10:00:41;99521.84;;;12.25;80.69
74960;BME280;63518;49.572;1.106;2023-05-10T10:03:15;99529.88;;;12.92;79.76
74960;BME280;63518;49.572;1.106;2023-05-10T10:05:42;99511.28;;;12.65;80.69
74960;BME280;63518;49.572;1.106;2023-05-10T10:08:10;99530.16;;;13.09;78.92
74960;BME280;63518;49.572;1.106;2023-05-10T10:10:41;99532.56;;;11.70;80.50
74960;BME280;63518;49.572;1.106;2023-05-10T10:13:08;99531.84;;;12.21;82.80
74960;BME280;63518;49.572;1.106;2023-05-10T10:15:35;99538.13;;;12.45;80.42
74960;BME280;63518;49.572;1.106;2023-05-10T10:18:02;99534.16;;;12.52;79.08
74960;BME280;63518;49.572;1.106;2023-05-10T10:20:31;99534.75;;;12.49;78.45
74960;BME280;63518;49.572;1.106;2023-05-10T10:22:58;99537.66;;;12.90;78.81
74960;BME280;63518;49.572;1.106;2023-05-10T10:25:25;99527.13;;;13.66;77.81
74960;BME280;63518;49.572;1.106;2023-05-10T10:30:28;99531.31;;;13.91;76.97
74960;BME280;63518;49.572;1.106;2023-05-10T10:35:43;99539.63;;;14.54;77.07
74960;BME280;63518;49.572;1.106;2023-05-10T10:38:20;99529.91;;;14.65;72.55
74960;BME280;63518;49.572;1.106;2023-05-10T10:41:02;99526.56;;;13.09;75.07
74960;BME280;63518;49.572;1.106;2023-05-10T10:43:32;99527.72;;;13.21;74.34
74960;BME280;63518;49.572;1.106;2023-05-10T10:46:13;99539.56;;;14.32;73.29
74960;BME280;63518;49.572;1.106;2023-05-10T10:48:41;99539.22;;;14.47;71.70
74960;BME280;63518;49.572;1.106;2023-05-10T10:51:16;99528.56;;;13.49;75.64
74960;BME280;63518;49.572;1.106;2023-05-10T10:53:43;99528.31;;;13.05;77.33
74960;BME280;63518;49.572;1.106;2023-05-10T10:56:21;99522.22;;;12.70;74.71
74960;BME280;63518;49.572;1.106;2023-05-10T10:58:51;99540.97;;;13.93;75.40
74960;BME280;63518;49.572;1.106;2023-05-10T11:01:20;99529.97;;;15.59;72.70
74960;BME280;63518;49.572;1.106;2023-05-10T11:06:38;99545.19;;;13.36;77.70
74960;BME280;63518;49.572;1.106;2023-05-10T11:09:11;99543.75;;;14.43;74.07
74960;BME280;63518;49.572;1.106;2023-05-10T11:11:52;99542.41;;;13.49;72.46
74960;BME280;63518;49.572;1.106;2023-05-10T11:14:22;99533.44;;;14.21;72.56
74960;BME280;63518;49.572;1.106;2023-05-10T11:16:49;99540.88;;;13.57;75.21
74960;BME280;63518;49.572;1.106;2023-05-10T11:19:17;99541.25;;;12.90;76.48
74960;BME280;63518;49.572;1.106;2023-05-10T11:24:33;99536.69;;;14.82;71.00
74960;BME280;63518;49.572;1.106;2023-05-10T11:27:00;99532.91;;;15.00;73.14
74960;BME280;63518;49.572;1.106;2023-05-10T11:29:28;99540.97;;;14.43;73.53
74960;BME280;63518;49.572;1.106;2023-05-10T11:31:58;99546.72;;;15.85;70.50
74960;BME280;63518;49.572;1.106;2023-05-10T11:34:28;99540.25;;;16.15;69.84
74960;BME280;63518;49.572;1.106;2023-05-10T11:37:04;99548.09;;;16.04;69.78
74960;BME280;63518;49.572;1.106;2023-05-10T11:39:45;99542.66;;;14.30;75.47
74960;BME280;63518;49.572;1.106;2023-05-10T11:42:14;99543.41;;;14.08;73.99
74960;BME280;63518;49.572;1.106;2023-05-10T11:44:41;99539.44;;;13.60;75.28
74960;BME280;63518;49.572;1.106;2023-05-10T11:47:11;99536.44;;;13.28;75.67
74960;BME280;63518;49.572;1.106;2023-05-10T11:49:38;99543.72;;;13.24;77.43
74960;BME280;63518;49.572;1.106;2023-05-10T11:52:08;99536.06;;;13.35;76.35
74960;BME280;63518;49.572;1.106;2023-05-10T11:54:51;99537.50;;;13.00;77.95
74960;BME280;63518;49.572;1.106;2023-05-10T11:57:20;99541.06;;;13.88;76.44
74960;BME280;63518;49.572;1.106;2023-05-10T11:59:47;99538.56;;;15.17;74.40
74960;BME280;63518;49.572;1.106;2023-05-10T12:02:14;99525.47;;;13.65;72.28
74960;BME280;63518;49.572;1.106;2023-05-10T12:04:41;99537.66;;;14.55;75.37
74960;BME280;63518;49.572;1.106;2023-05-10T12:07:09;99531.66;;;13.75;75.05
74960;BME280;63518;49.572;1.106;2023-05-10T12:09:35;99543.56;;;14.39;75.19
74960;BME280;63518;49.572;1.106;2023-05-10T12:12:09;99533.28;;;15.78;70.22
74960;BME280;63518;49.572;1.106;2023-05-10T12:14:36;99538.69;;;14.45;73.83
74960;BME280;63518;49.572;1.106;2023-05-10T12:17:03;99553.66;;;14.08;73.74
74960;BME280;63518;49.572;1.106;2023-05-10T12:19:39;99530.78;;;13.89;74.51
74960;BME280;63518;49.572;1.106;2023-05-10T12:22:06;99548.03;;;14.13;75.42
74960;BME280;63518;49.572;1.106;2023-05-10T12:24:36;99544.16;;;14.73;73.23
74960;BME280;63518;49.572;1.106;2023-05-10T12:27:05;99539.44;;;13.46;74.37
74960;BME280;63518;49.572;1.106;2023-05-10T12:29:34;99545.16;;;14.77;72.75
74960;BME280;63518;49.572;1.106;2023-05-10T12:32:01;99549.13;;;15.38;70.10
74960;BME280;63518;49.572;1.106;2023-05-10T12:34:33;99547.16;;;14.40;68.53
74960;BME280;63518;49.572;1.106;2023-05-10T12:37:06;99540.84;;;15.95;70.52
74960;BME280;63518;49.572;1.106;2023-05-10T12:39:43;99535.31;;;14.12;70.79
74960;BME280;63518;49.572;1.106;2023-05-10T12:42:12;99534.75;;;14.60;73.23
74960;BME280;63518;49.572;1.106;2023-05-10T12:44:39;99547.63;;;14.78;71.87
74960;BME280;63518;49.572;1.106;2023-05-10T12:47:06;99535.22;;;13.21;74.83
74960;BME280;63518;49.572;1.106;2023-05-10T12:49:33;99542.13;;;13.51;73.20
74960;BME280;63518;49.572;1.106;2023-05-10T12:52:03;99527.00;;;13.16;73.12
74960;BME280;63518;49.572;1.106;2023-05-10T12:54:30;99528.69;;;14.22;73.19
74960;BME280;63518;49.572;1.106;2023-05-10T12:56:57;99539.47;;;14.82;69.04
74960;BME280;63518;49.572;1.106;2023-05-10T12:59:23;99533.81;;;14.87;69.59
74960;BME280;63518;49.572;1.106;2023-05-10T13:01:50;99531.28;;;16.87;65.21
74960;BME280;63518;49.572;1.106;2023-05-10T13:04:17;99527.63;;;16.18;66.00
74960;BME280;63518;49.572;1.106;2023-05-10T13:06:43;99542.06;;;15.63;69.01
74960;BME280;63518;49.572;1.106;2023-05-10T13:09:10;99531.69;;;15.94;68.32
74960;BME280;63518;49.572;1.106;2023-05-10T13:11:37;99542.31;;;15.84;66.89
74960;BME280;63518;49.572;1.106;2023-05-10T13:14:06;99539.16;;;14.38;70.52
74960;BME280;63518;49.572;1.106;2023-05-10T13:16:33;99550.59;;;13.96;73.74
74960;BME280;63518;49.572;1.106;2023-05-10T13:19:00;99553.84;;;14.61;72.09
74960;BME280;63518;49.572;1.106;2023-05-10T13:21:29;99547.31;;;13.94;71.34
74960;BME280;63518;49.572;1.106;2023-05-10T13:23:55;99551.75;;;15.12;69.71
74960;BME280;63518;49.572;1.106;2023-05-10T13:26:22;99538.59;;;14.73;72.01
74960;BME280;63518;49.572;1.106;2023-05-10T13:28:49;99545.91;;;13.69;71.83
74960;BME280;63518;49.572;1.106;2023-05-10T13:31:17;99545.88;;;14.24;73.79
74960;BME280;63518;49.572;1.106;2023-05-10T13:33:44;99548.78;;;13.77;72.24
74960;BME280;63518;49.572;1.106;2023-05-10T13:36:11;99551.09;;;15.37;71.19
74960;BME280;63518;49.572;1.106;2023-05-10T13:38:38;99540.78;;;16.26;66.11
74960;BME280;63518;49.572;1.106;2023-05-10T13:41:05;99550.09;;;16.21;63.58
74960;BME280;63518;49.572;1.106;2023-05-10T13:43:32;99548.47;;;17.54;62.17
74960;BME280;63518;49.572;1.106;2023-05-10T13:45:58;99539.25;;;15.54;63.56
74960;BME280;63518;49.572;1.106;2023-05-10T13:48:26;99535.13;;;15.43;64.79
74960;BME280;63518;49.572;1.106;2023-05-10T13:50:53;99540.78;;;16.86;61.64
74960;BME280;63518;49.572;1.106;2023-05-10T13:53:20;99542.25;;;16.23;61.06
74960;BME280;63518;49.572;1.106;2023-05-10T13:55:50;99536.84;;;16.27;65.53
74960;BME280;63518;49.572;1.106;2023-05-10T13:58:16;99525.84;;;17.64;57.38